Time;durP1;ratioP1;P1;durP2;ratioP2;P2;SDS_P1;SDS_P2;PMS_P1;PMS_P2;Temp;Humidity;BMP_temperature;BMP_pressure;BME280_temperature;BME280_humidity;BME280_pressure;Samples;Min_cycle;Max_cycle;Signal;HPM_P1;HPM_P2
2022/10/19 00:01:12;;;;;;;5.15;1.40;;;12.60;99.90;;;;;;4998768;28;20018;-85
2022/10/19 00:03:38;;;;;;;3.60;1.55;;;12.60;99.90;;;;;;5012147;28;20022;-85
2022/10/19 00:06:24;;;;;;;3.97;1.48;;;12.50;99.90;;;;;;5012031;28;20018;-84
2022/10/19 00:08:51;;;;;;;5.47;1.50;;;12.50;99.90;;;;;;5015312;28;20026;-85
2022/10/19 00:11:17;;;;;;;6.15;2.08;;;12.40;99.90;;;;;;4998984;28;20064;-85
2022/10/19 00:13:43;;;;;;;7.18;1.67;;;12.40;99.90;;;;;;5008497;28;20077;-85
2022/10/19 00:16:12;;;;;;;5.65;1.83;;;12.30;99.90;;;;;;5048551;28;20069;-85
2022/10/19 00:18:38;;;;;;;5.00;1.90;;;12.30;99.90;;;;;;5035345;28;20021;-85
2022/10/19 00:21:06;;;;;;;6.53;1.55;;;12.30;99.90;;;;;;5018624;28;20021;-85
2022/10/19 00:23:32;;;;;;;6.57;1.75;;;12.20;99.90;;;;;;5046429;28;20053;-85
2022/10/19 00:25:59;;;;;;;6.80;1.70;;;12.20;99.90;;;;;;5011350;28;20060;-85
2022/10/19 00:28:25;;;;;;;5.95;1.40;;;12.20;99.90;;;;;;5037330;28;20013;-85
2022/10/19 00:30:50;;;;;;;6.32;1.63;;;12.10;99.90;;;;;;5033345;28;20018;-85
2022/10/19 00:33:20;;;;;;;7.43;1.73;;;12.10;99.90;;;;;;5022251;28;20036;-85
2022/10/19 00:35:50;;;;;;;5.35;1.63;;;12.10;99.90;;;;;;5022459;28;20024;-85
2022/10/19 00:38:17;;;;;;;8.55;1.40;;;12.00;99.90;;;;;;5039243;28;20029;-85
2022/10/19 00:40:43;;;;;;;6.20;1.50;;;12.00;99.90;;;;;;5034907;28;20021;-86
2022/10/19 00:43:31;;;;;;;8.55;1.83;;;12.00;99.90;;;;;;5017995;28;20034;-85
2022/10/19 00:45:56;;;;;;;5.22;1.40;;;11.90;99.90;;;;;;5056430;28;20029;-85
2022/10/19 00:48:28;;;;;;;3.72;1.20;;;11.90;99.90;;;;;;5038565;28;20032;-85
2022/10/19 00:50:56;;;;;;;3.85;1.30;;;11.80;99.90;;;;;;5039226;28;20052;-85
2022/10/19 00:53:25;;;;;;;6.13;1.15;;;11.80;99.90;;;;;;5041160;28;20033;-85
2022/10/19 00:55:51;;;;;;;2.25;1.00;;;11.80;99.90;;;;;;5038539;28;20386;-85
2022/10/19 00:58:17;;;;;;;4.78;0.98;;;11.70;99.90;;;;;;5022415;28;20490;-85
2022/10/19 01:00:42;;;;;;;1.15;0.60;;;11.70;99.90;;;;;;5013071;28;20033;-85
2022/10/19 01:03:10;;;;;;;2.92;0.85;;;11.70;99.90;;;;;;5021489;28;20024;-85
2022/10/19 01:05:37;;;;;;;2.10;0.73;;;11.60;99.90;;;;;;5031461;28;20047;-84
2022/10/19 01:08:03;;;;;;;1.88;0.80;;;11.60;99.90;;;;;;5018026;28;20037;-85
2022/10/19 01:11:00;;;;;;;6.28;1.50;;;11.60;99.90;;;;;;5016037;28;20033;-85
2022/10/19 01:13:50;;;;;;;2.47;1.23;;;11.50;99.90;;;;;;5032057;28;20068;-85
2022/10/19 01:16:26;;;;;;;6.22;1.33;;;11.50;99.90;;;;;;5013735;28;20025;-85
2022/10/19 01:19:15;;;;;;;8.40;1.45;;;11.40;99.90;;;;;;5017716;28;20417;-85
2022/10/19 01:21:47;;;;;;;3.20;1.30;;;11.40;99.90;;;;;;5016509;28;20116;-85
2022/10/19 01:24:55;;;;;;;4.00;1.77;;;11.40;99.90;;;;;;5011885;28;20026;-85
2022/10/19 01:27:58;;;;;;;5.40;1.40;;;11.30;99.90;;;;;;5011132;28;20029;-85
2022/10/19 01:30:49;;;;;;;4.78;1.70;;;11.30;99.90;;;;;;4977588;28;20595;-85
2022/10/19 01:33:29;;;;;;;2.88;1.10;;;11.30;99.90;;;;;;5028886;28;20037;-85
2022/10/19 01:36:01;;;;;;;2.30;0.80;;;11.20;99.90;;;;;;5023055;28;20040;-85
2022/10/19 01:38:27;;;;;;;3.80;0.77;;;11.20;99.90;;;;;;5034009;28;20021;-85
2022/10/19 01:40:56;;;;;;;1.05;0.32;;;11.20;99.90;;;;;;5034889;28;20463;-85
2022/10/19 01:43:41;;;;;;;2.35;1.02;;;11.10;99.90;;;;;;5017107;28;20024;-85
2022/10/19 01:46:14;;;;;;;3.40;1.00;;;11.10;99.90;;;;;;5031310;28;20045;-85
2022/10/19 01:48:46;;;;;;;1.45;0.73;;;11.00;99.90;;;;;;5030475;28;20026;-85
2022/10/19 01:51:32;;;;;;;1.02;0.90;;;10.90;99.90;;;;;;5013499;28;20057;-85
2022/10/19 01:54:01;;;;;;;0.98;0.80;;;10.90;99.90;;;;;;5017451;28;20021;-84
2022/10/19 01:56:30;;;;;;;0.70;0.70;;;10.90;99.90;;;;;;5033587;28;20508;-85
2022/10/19 01:58:59;;;;;;;1.33;0.90;;;10.80;99.90;;;;;;5016857;28;20083;-85
2022/10/19 02:01:28;;;;;;;1.75;0.90;;;10.80;99.90;;;;;;5017018;28;20505;-84
2022/10/19 02:03:56;;;;;;;1.58;0.85;;;10.70;99.90;;;;;;5005134;28;20021;-84
2022/10/19 02:06:22;;;;;;;4.90;0.85;;;10.70;99.90;;;;;;5034660;28;20025;-85
2022/10/19 02:08:51;;;;;;;3.10;1.55;;;10.70;99.90;;;;;;5021372;28;20114;-85
2022/10/19 02:11:19;;;;;;;3.25;1.20;;;10.70;99.90;;;;;;5016658;28;20406;-85
2022/10/19 02:13:51;;;;;;;3.03;1.13;;;10.60;99.90;;;;;;5020047;28;20132;-84
2022/10/19 02:16:26;;;;;;;3.60;1.30;;;10.60;99.90;;;;;;5049674;28;20394;-84
2022/10/19 02:18:53;;;;;;;3.90;1.40;;;10.60;99.90;;;;;;5050601;28;20025;-84
2022/10/19 02:21:44;;;;;;;3.20;1.40;;;10.50;99.90;;;;;;5036289;28;20390;-84
2022/10/19 02:24:10;;;;;;;3.47;1.35;;;10.50;99.90;;;;;;5022758;28;20022;-84
2022/10/19 02:26:36;;;;;;;2.58;1.10;;;10.50;99.90;;;;;;4983981;28;20052;-84
2022/10/19 02:29:02;;;;;;;2.63;1.23;;;10.40;99.90;;;;;;5024640;28;20483;-84
2022/10/19 02:31:28;;;;;;;4.60;1.23;;;10.40;99.90;;;;;;5013014;28;20033;-84
2022/10/19 02:33:54;;;;;;;4.13;1.58;;;10.40;99.90;;;;;;4997539;28;20018;-84
2022/10/19 02:36:20;;;;;;;3.15;1.00;;;10.40;99.90;;;;;;5010752;28;20048;-84
2022/10/19 02:38:46;;;;;;;3.78;0.90;;;10.40;99.90;;;;;;5013137;28;20014;-84
2022/10/19 02:41:28;;;;;;;2.63;1.00;;;10.40;99.90;;;;;;5019346;28;20036;-84
2022/10/19 02:44:01;;;;;;;2.40;1.10;;;10.30;99.90;;;;;;5004630;28;20152;-84
2022/10/19 02:46:31;;;;;;;3.25;0.95;;;10.30;99.90;;;;;;5016070;28;20037;-84
2022/10/19 02:48:57;;;;;;;2.38;1.13;;;10.30;99.90;;;;;;5026026;28;20176;-84
2022/10/19 02:51:33;;;;;;;3.75;1.20;;;10.30;99.90;;;;;;5002303;28;20121;-84
2022/10/19 02:53:59;;;;;;;3.28;0.90;;;10.20;99.90;;;;;;5012883;28;20030;-84
2022/10/19 02:56:25;;;;;;;4.25;1.15;;;10.20;99.90;;;;;;5007910;28;20018;-84
2022/10/19 02:58:51;;;;;;;5.53;1.08;;;10.20;99.90;;;;;;5033679;28;20452;-84
2022/10/19 03:01:17;;;;;;;3.75;1.42;;;10.10;99.90;;;;;;5009124;28;20023;-84
2022/10/19 03:03:43;;;;;;;6.03;1.38;;;10.10;99.90;;;;;;5029565;28;20033;-84
2022/10/19 03:06:08;;;;;;;5.00;1.20;;;10.10;99.90;;;;;;5032277;28;20037;-84
2022/10/19 03:08:34;;;;;;;3.25;1.27;;;10.10;99.90;;;;;;4983514;28;20021;-84
2022/10/19 03:11:00;;;;;;;3.53;1.60;;;10.00;99.90;;;;;;5012824;28;20028;-84
2022/10/19 03:13:25;;;;;;;4.95;1.42;;;10.00;99.90;;;;;;5012427;28;20049;-84
2022/10/19 03:15:51;;;;;;;3.22;1.50;;;10.00;99.90;;;;;;5050389;28;20048;-84
2022/10/19 03:18:17;;;;;;;4.47;1.77;;;10.00;99.90;;;;;;5028567;28;20569;-84
2022/10/19 03:20:42;;;;;;;6.43;1.70;;;10.00;99.90;;;;;;5035538;28;20029;-84
2022/10/19 03:23:08;;;;;;;5.07;1.50;;;10.00;99.90;;;;;;5025450;28;20032;-84
2022/10/19 03:25:34;;;;;;;6.57;1.73;;;9.90;99.90;;;;;;5041613;28;20025;-83
2022/10/19 03:28:00;;;;;;;5.90;1.60;;;9.90;99.90;;;;;;5042959;28;20132;-84
2022/10/19 03:30:25;;;;;;;4.28;1.50;;;9.90;99.90;;;;;;5041882;28;20496;-84
2022/10/19 03:32:51;;;;;;;4.78;1.38;;;9.90;99.90;;;;;;5052401;28;20025;-84
2022/10/19 03:35:17;;;;;;;3.00;1.42;;;9.80;99.90;;;;;;5035350;28;20029;-84
2022/10/19 03:37:42;;;;;;;3.40;1.52;;;9.80;99.90;;;;;;5018928;28;20107;-84
2022/10/19 03:40:08;;;;;;;3.70;1.70;;;9.80;99.90;;;;;;5025096;28;20130;-84
2022/10/19 03:42:34;;;;;;;5.57;1.80;;;9.80;99.90;;;;;;5006059;28;20489;-84
2022/10/19 03:45:00;;;;;;;2.85;1.60;;;9.80;99.90;;;;;;5025010;28;20103;-84
2022/10/19 03:47:25;;;;;;;5.47;2.10;;;9.80;99.90;;;;;;5041680;28;20064;-85
2022/10/19 03:49:51;;;;;;;7.22;2.40;;;9.80;99.90;;;;;;5035045;28;20078;-84
2022/10/19 03:52:18;;;;;;;3.70;1.70;;;9.70;99.90;;;;;;5008711;28;20029;-84
2022/10/19 03:54:44;;;;;;;4.22;2.30;;;9.70;99.90;;;;;;5018879;28;20028;-84
2022/10/19 03:57:10;;;;;;;4.72;2.08;;;9.70;99.90;;;;;;5021657;28;20064;-84
2022/10/19 03:59:36;;;;;;;6.25;1.88;;;9.70;99.90;;;;;;5052158;28;20036;-85
2022/10/19 04:02:02;;;;;;;5.53;2.10;;;9.70;99.90;;;;;;5019548;28;20029;-85
2022/10/19 04:04:27;;;;;;;5.10;2.50;;;9.60;99.90;;;;;;5057776;28;20029;-84
2022/10/19 04:06:53;;;;;;;5.43;2.42;;;9.60;99.90;;;;;;5033576;28;20029;-85
2022/10/19 04:09:20;;;;;;;4.47;1.70;;;9.60;99.90;;;;;;5022839;28;20124;-84
2022/10/19 04:11:47;;;;;;;5.90;1.67;;;9.60;99.90;;;;;;5056946;28;20040;-84
2022/10/19 04:14:14;;;;;;;4.93;1.98;;;9.60;99.90;;;;;;5022537;28;20063;-84
2022/10/19 04:16:40;;;;;;;3.00;1.83;;;9.50;99.90;;;;;;5046243;28;20113;-84
2022/10/19 04:19:07;;;;;;;5.38;1.90;;;9.50;99.90;;;;;;5041581;28;20119;-84
2022/10/19 04:21:34;;;;;;;3.40;1.60;;;9.50;99.90;;;;;;5039027;28;20040;-84
2022/10/19 04:24:09;;;;;;;3.45;1.88;;;9.40;99.90;;;;;;5043434;28;20033;-85
2022/10/19 04:26:42;;;;;;;3.58;1.92;;;9.40;99.90;;;;;;5039287;28;20113;-87
2022/10/19 04:29:08;;;;;;;2.28;1.50;;;9.40;99.90;;;;;;5057509;28;20111;-88
2022/10/19 04:31:34;;;;;;;3.45;1.80;;;9.40;99.90;;;;;;5024148;28;20048;-88
2022/10/19 04:34:00;;;;;;;2.53;1.35;;;9.30;99.90;;;;;;5045873;28;20029;-88
2022/10/19 04:36:26;;;;;;;3.47;1.63;;;9.30;99.90;;;;;;5022829;28;20029;-86
2022/10/19 04:38:51;;;;;;;2.70;1.63;;;9.30;99.90;;;;;;5022651;28;20021;-87
2022/10/19 04:41:19;;;;;;;3.17;1.77;;;9.30;99.90;;;;;;5019446;28;20013;-87
2022/10/19 04:43:46;;;;;;;3.78;1.90;;;9.30;99.90;;;;;;5056999;28;20024;-88
2022/10/19 04:46:17;;;;;;;4.10;1.67;;;9.20;99.90;;;;;;5056833;28;20025;-87
2022/10/19 04:48:43;;;;;;;;;;;9.20;99.90;;;;;;5039424;28;20025;-88
2022/10/19 04:51:09;;;;;;;7.45;1.67;;;9.20;99.90;;;;;;5039284;28;19908;-87
2022/10/19 04:53:37;;;;;;;2.42;1.73;;;9.20;99.90;;;;;;5052674;28;20029;-88
2022/10/19 04:56:10;;;;;;;2.10;1.50;;;9.10;99.90;;;;;;5044969;28;20108;-89
2022/10/19 04:58:36;;;;;;;3.65;1.50;;;9.10;99.90;;;;;;5056430;28;20124;-88
2022/10/19 05:01:10;;;;;;;2.03;1.38;;;9.10;99.90;;;;;;5040733;28;20049;-89
2022/10/19 05:03:36;;;;;;;1.77;1.40;;;9.10;99.90;;;;;;5040745;28;20129;-89
2022/10/19 05:06:03;;;;;;;2.45;1.60;;;9.10;99.90;;;;;;5031846;28;20025;-88
2022/10/19 05:08:29;;;;;;;3.33;1.90;;;9.10;99.90;;;;;;5032529;28;20071;-88
2022/10/19 05:11:03;;;;;;;4.32;1.70;;;9.10;99.90;;;;;;5040974;28;20431;-88
2022/10/19 05:13:31;;;;;;;4.15;2.50;;;9.10;99.90;;;;;;5057278;28;20033;-88
2022/10/19 05:15:59;;;;;;;5.50;2.47;;;9.00;99.90;;;;;;5038984;28;20009;-88
2022/10/19 05:18:27;;;;;;;5.85;2.67;;;9.00;99.90;;;;;;5039145;28;20021;-88
2022/10/19 05:21:07;;;;;;;2.83;2.10;;;9.00;99.90;;;;;;5013926;28;20147;-88
2022/10/19 05:23:33;;;;;;;8.77;3.80;;;9.00;99.90;;;;;;5030669;28;20371;-88
2022/10/19 05:26:05;;;;;;;6.80;4.30;;;9.00;99.90;;;;;;5046462;28;20027;-88
2022/10/19 05:28:31;;;;;;;7.40;3.63;;;8.90;99.90;;;;;;5039881;28;20037;-90
2022/10/19 05:31:05;;;;;;;7.47;3.88;;;8.90;99.90;;;;;;5020514;28;20036;-90
2022/10/19 05:33:31;;;;;;;4.68;3.33;;;8.90;99.90;;;;;;5042289;28;20029;-91
2022/10/19 05:35:56;;;;;;;6.90;2.97;;;8.90;99.90;;;;;;5033003;28;20493;-91
2022/10/19 05:38:22;;;;;;;4.25;2.08;;;8.90;99.90;;;;;;5010825;28;20018;-90
2022/10/19 05:40:48;;;;;;;4.70;2.50;;;8.90;99.90;;;;;;5030245;28;20376;-90
2022/10/19 05:43:13;;;;;;;4.85;2.85;;;8.90;99.90;;;;;;5025278;28;20394;-89
2022/10/19 05:45:39;;;;;;;5.68;2.85;;;8.80;99.90;;;;;;5019361;28;20474;-91
2022/10/19 05:48:05;;;;;;;8.05;3.00;;;8.80;99.90;;;;;;5038319;28;20040;-91
2022/10/19 05:50:30;;;;;;;5.93;3.25;;;8.80;99.90;;;;;;5018785;28;20030;-90
2022/10/19 05:52:56;;;;;;;5.78;3.70;;;8.80;99.90;;;;;;5033789;28;20068;-90
2022/10/19 05:55:22;;;;;;;9.15;4.43;;;8.80;99.90;;;;;;5034745;28;20017;-91
2022/10/19 05:57:47;;;;;;;9.07;3.95;;;8.80;99.90;;;;;;5005201;28;20127;-90
2022/10/19 06:00:13;;;;;;;9.60;4.00;;;8.80;99.90;;;;;;5018131;28;20116;-91
2022/10/19 06:02:39;;;;;;;7.75;4.50;;;8.80;99.90;;;;;;5013864;28;20048;-91
2022/10/19 06:05:05;;;;;;;9.38;5.18;;;8.80;99.90;;;;;;5026677;28;20045;-91
2022/10/19 06:07:31;;;;;;;8.75;4.50;;;8.80;99.90;;;;;;5037298;28;20047;-90
2022/10/19 06:09:56;;;;;;;12.35;4.85;;;8.80;99.90;;;;;;5021567;28;20025;-91
2022/10/19 06:12:22;;;;;;;13.50;5.13;;;8.80;99.90;;;;;;5054554;28;20021;-90
2022/10/19 06:14:50;;;;;;;9.20;5.10;;;8.80;99.90;;;;;;5040764;28;20051;-91
2022/10/19 06:17:15;;;;;;;11.32;5.43;;;8.80;99.90;;;;;;5073667;28;20036;-90
2022/10/19 06:19:41;;;;;;;12.85;5.63;;;8.80;99.90;;;;;;5045115;28;20025;-90
2022/10/19 06:22:07;;;;;;;14.20;5.95;;;8.80;99.90;;;;;;5041013;28;20059;-87
2022/10/19 06:24:32;;;;;;;9.25;5.22;;;8.80;99.90;;;;;;5025617;28;20473;-87
2022/10/19 06:26:58;;;;;;;10.68;4.97;;;8.80;99.90;;;;;;5039783;28;20393;-90
2022/10/19 06:29:23;;;;;;;17.02;5.95;;;8.80;99.90;;;;;;5025489;28;20111;-85
2022/10/19 06:31:50;;;;;;;13.27;5.43;;;8.90;99.90;;;;;;5044792;28;20032;-85
2022/10/19 06:34:19;;;;;;;9.80;5.70;;;8.90;99.90;;;;;;5025474;28;20021;-85
2022/10/19 06:36:45;;;;;;;6.95;4.78;;;8.90;99.90;;;;;;5042751;28;20055;-85
2022/10/19 06:39:11;;;;;;;14.07;5.40;;;8.90;99.90;;;;;;5018544;28;20032;-85
2022/10/19 06:41:36;;;;;;;10.07;6.15;;;8.90;99.90;;;;;;5017294;28;20029;-85
2022/10/19 06:44:02;;;;;;;11.27;5.75;;;9.00;99.90;;;;;;5017166;28;20036;-86
2022/10/19 06:46:28;;;;;;;8.65;5.47;;;9.00;99.90;;;;;;5012131;28;20029;-83
2022/10/19 06:48:59;;;;;;;8.57;5.63;;;9.00;99.90;;;;;;5047150;28;20039;-83
2022/10/19 06:51:27;;;;;;;12.07;6.07;;;9.10;99.90;;;;;;5041490;28;20017;-83
2022/10/19 06:53:53;;;;;;;10.32;6.03;;;9.10;99.90;;;;;;5065374;28;20025;-82
2022/10/19 06:56:19;;;;;;;12.05;6.38;;;9.10;99.90;;;;;;5005692;28;20386;-83
2022/10/19 06:58:45;;;;;;;10.27;6.22;;;9.10;99.90;;;;;;5009190;28;20013;-83
2022/10/19 07:01:12;;;;;;;10.50;6.30;;;9.20;99.90;;;;;;5033422;28;20033;-83
2022/10/19 07:03:38;;;;;;;10.18;6.65;;;9.20;99.90;;;;;;5050282;28;20096;-83
2022/10/19 07:06:10;;;;;;;12.82;6.50;;;9.20;99.90;;;;;;5060495;28;20020;-83
2022/10/19 07:08:37;;;;;;;13.15;6.85;;;9.30;99.90;;;;;;5043766;28;20027;-83
2022/10/19 07:11:13;;;;;;;14.32;6.78;;;9.30;99.90;;;;;;5045399;28;20028;-83
2022/10/19 07:13:39;;;;;;;13.07;6.57;;;9.30;99.90;;;;;;5050616;28;20052;-84
2022/10/19 07:16:06;;;;;;;11.57;6.88;;;9.30;99.90;;;;;;5047135;28;20032;-83
2022/10/19 07:18:36;;;;;;;11.70;6.15;;;9.40;99.90;;;;;;5042124;28;20016;-84
2022/10/19 07:21:05;;;;;;;10.00;6.00;;;9.40;99.90;;;;;;5021733;28;20363;-83
2022/10/19 07:23:32;;;;;;;14.13;6.47;;;9.40;99.90;;;;;;5047421;28;20076;-83
2022/10/19 07:26:04;;;;;;;11.65;6.53;;;9.40;99.90;;;;;;5065263;28;20079;-84
2022/10/19 07:28:30;;;;;;;11.00;6.28;;;9.50;99.90;;;;;;5055977;22;20048;-85
2022/10/19 07:30:56;;;;;;;12.98;6.53;;;9.50;99.90;;;;;;5013013;28;20429;-85
2022/10/19 07:33:22;;;;;;;10.32;6.28;;;9.50;99.90;;;;;;5023222;28;20104;-88
2022/10/19 07:35:48;;;;;;;9.07;6.00;;;9.50;99.90;;;;;;5028623;28;20443;-88
2022/10/19 07:38:14;;;;;;;11.07;6.75;;;9.60;99.90;;;;;;5032847;28;20113;-87
2022/10/19 07:40:39;;;;;;;9.90;6.50;;;9.60;99.90;;;;;;5027479;28;20481;-88
2022/10/19 07:43:05;;;;;;;10.52;7.30;;;9.70;99.90;;;;;;5049299;28;20060;-87
2022/10/19 07:45:37;;;;;;;11.68;6.60;;;9.70;99.90;;;;;;5024109;28;20202;-92
2022/10/19 07:48:13;;;;;;;10.00;6.15;;;9.70;99.90;;;;;;5020900;28;20039;-92
2022/10/19 07:50:44;;;;;;;10.38;5.90;;;9.70;99.90;;;;;;5032679;28;20026;-92
2022/10/19 07:53:10;;;;;;;10.65;6.15;;;9.70;99.90;;;;;;5018411;28;20026;-92
2022/10/19 07:55:47;;;;;;;7.80;6.05;;;9.80;99.90;;;;;;5036092;28;20125;-91
2022/10/19 07:58:23;;;;;;;15.38;6.22;;;9.80;99.90;;;;;;5031596;28;20112;-92
2022/10/19 08:01:03;;;;;;;13.90;5.95;;;9.80;99.90;;;;;;5028263;28;20408;-91
2022/10/19 08:03:29;;;;;;;11.18;5.20;;;9.90;99.90;;;;;;5036948;28;20070;-90
2022/10/19 08:06:23;;;;;;;;;;;;;;;;;;;;;
2022/10/19 08:09:10;;;;;;;9.52;4.78;;;9.90;99.90;;;;;;5044668;28;20030;-91
2022/10/19 08:11:51;;;;;;;9.18;3.58;;;10.00;99.90;;;;;;5034753;28;20017;-94
2022/10/19 08:14:20;;;;;;;6.88;3.47;;;10.00;99.90;;;;;;5033199;28;20552;-92
2022/10/19 08:16:51;;;;;;;7.95;3.45;;;10.00;99.90;;;;;;5029259;28;20432;-92
2022/10/19 08:19:41;;;;;;;6.15;3.17;;;10.10;99.90;;;;;;5033446;28;20075;-93
2022/10/19 08:22:08;;;;;;;7.30;3.33;;;10.10;99.90;;;;;;5037465;28;20025;-91
2022/10/19 08:24:45;;;;;;;7.53;3.63;;;10.10;99.90;;;;;;5039773;28;20448;-93
2022/10/19 08:27:13;;;;;;;9.40;3.38;;;10.20;99.90;;;;;;5034011;28;20021;-92
2022/10/19 08:29:45;;;;;;;10.00;3.85;;;10.20;99.90;;;;;;5037200;28;20048;-93
2022/10/19 08:32:18;;;;;;;;;;;10.20;99.90;;;;;;5031825;28;20465;-92
2022/10/19 08:35:05;;;;;;;8.75;3.25;;;10.30;99.90;;;;;;5032361;28;20015;-91
2022/10/19 08:37:44;;;;;;;8.02;3.50;;;10.30;99.90;;;;;;5030068;28;20052;-94
2022/10/19 08:40:30;;;;;;;9.55;3.70;;;10.30;99.90;;;;;;5024055;28;20540;-92
2022/10/19 08:43:46;;;;;;;8.82;3.50;;;10.40;99.90;;;;;;5037397;28;20029;-92
2022/10/19 08:46:26;;;;;;;5.57;3.20;;;10.40;99.90;;;;;;4993016;28;20036;-92
2022/10/19 08:49:02;;;;;;;;;;;;;;;;;;;;;
2022/10/19 08:51:45;;;;;;;7.50;3.20;;;10.50;99.90;;;;;;5060715;28;20113;-93
2022/10/19 08:54:19;;;;;;;8.98;3.80;;;10.50;99.90;;;;;;5057976;28;20025;-93
2022/10/19 08:57:23;;;;;;;7.60;3.20;;;10.60;99.90;;;;;;5042158;28;20030;-94
2022/10/19 09:00:00;;;;;;;9.60;3.20;;;10.70;99.90;;;;;;5039528;28;20051;-92
2022/10/19 09:02:49;;;;;;;6.97;3.47;;;10.70;99.90;;;;;;5037286;28;20076;-93
2022/10/19 09:05:40;;;;;;;8.30;3.33;;;10.80;99.90;;;;;;5041944;28;20021;-94
2022/10/19 09:08:32;;;;;;;5.78;3.08;;;10.90;99.90;;;;;;5054766;28;20005;-94
2022/10/19 09:11:01;;;;;;;8.60;3.42;;;10.90;99.90;;;;;;5049792;28;20033;-95
2022/10/19 09:13:32;;;;;;;8.30;3.42;;;11.00;99.90;;;;;;5039372;28;20025;-94
2022/10/19 09:15:59;;;;;;;5.22;3.22;;;11.00;99.90;;;;;;5042012;28;20017;-93
2022/10/19 09:18:30;;;;;;;7.25;3.70;;;11.10;99.90;;;;;;5044030;28;20099;-91
2022/10/19 09:21:20;;;;;;;7.00;3.38;;;11.20;99.90;;;;;;5043470;28;20025;-93
2022/10/19 09:24:01;;;;;;;7.25;3.60;;;11.20;99.90;;;;;;5046979;28;20028;-92
2022/10/19 09:26:43;;;;;;;18.65;3.95;;;11.40;99.90;;;;;;5058902;28;20052;-92
2022/10/19 09:29:32;;;;;;;11.52;3.80;;;11.40;99.90;;;;;;5043843;28;20083;-93
2022/10/19 09:32:16;;;;;;;10.90;3.40;;;11.50;99.90;;;;;;5061547;28;20021;-92
2022/10/19 09:34:59;;;;;;;6.13;2.90;;;11.60;99.90;;;;;;5041461;28;20029;-90
2022/10/19 09:37:25;;;;;;;9.65;3.53;;;11.70;99.90;;;;;;5040830;28;20044;-92
2022/10/19 09:39:51;;;;;;;8.80;3.20;;;11.80;99.90;;;;;;5038480;28;20025;-93
2022/10/19 09:42:29;;;;;;;10.20;4.22;;;11.90;99.90;;;;;;5036128;28;20036;-92
2022/10/19 09:44:59;;;;;;;10.52;3.28;;;12.00;99.90;;;;;;5061711;28;20021;-91
2022/10/19 09:47:39;;;;;;;8.43;2.92;;;12.10;99.90;;;;;;5047870;28;20032;-93
2022/10/19 09:50:41;;;;;;;12.60;3.30;;;12.20;99.90;;;;;;5037941;28;20049;-92
2022/10/19 09:53:37;;;;;;;5.72;2.70;;;12.30;99.90;;;;;;5024378;28;20059;-92
2022/10/19 09:56:09;;;;;;;7.40;2.85;;;12.40;99.90;;;;;;5032812;28;20116;-91
2022/10/19 09:58:47;;;;;;;8.35;3.50;;;12.50;99.90;;;;;;5038321;28;20021;-92
2022/10/19 10:01:30;;;;;;;5.28;2.70;;;12.60;99.90;;;;;;5074977;28;20058;-93
2022/10/19 10:04:14;;;;;;;14.35;4.40;;;12.70;99.90;;;;;;5061201;28;20005;-92
2022/10/19 10:06:42;;;;;;;7.63;2.67;;;12.80;99.90;;;;;;5058067;28;20044;-92
2022/10/19 10:09:25;;;;;;;6.63;2.80;;;12.90;99.90;;;;;;5043725;28;20045;-92
2022/10/19 10:11:53;;;;;;;10.43;2.72;;;13.00;99.90;;;;;;5054468;28;20020;-92
2022/10/19 10:14:22;;;;;;;3.78;1.73;;;13.00;99.90;;;;;;5061847;28;20042;-93
2022/10/19 10:16:53;;;;;;;4.43;2.00;;;13.10;99.90;;;;;;5029920;28;20025;-91
2022/10/19 10:19:18;;;;;;;10.63;2.28;;;13.20;99.90;;;;;;5050199;28;20029;-87
2022/10/19 10:21:56;;;;;;;7.65;2.10;;;13.30;99.90;;;;;;5022464;28;20032;-86
2022/10/19 10:24:28;;;;;;;8.32;2.47;;;13.40;99.90;;;;;;5056300;28;20104;-95
2022/10/19 10:26:59;;;;;;;4.57;2.00;;;13.50;99.90;;;;;;5042145;28;20025;-95
2022/10/19 10:29:34;;;;;;;10.13;1.98;;;13.60;99.90;;;;;;5045131;28;20048;-93
2022/10/19 10:32:08;;;;;;;10.95;1.95;;;13.70;99.90;;;;;;5042614;28;20032;-85
2022/10/19 10:35:01;;;;;;;4.40;1.63;;;13.80;99.90;;;;;;5047592;28;20022;-95
2022/10/19 10:37:38;;;;;;;3.38;1.55;;;13.90;99.90;;;;;;5040978;28;20050;-74
2022/10/19 10:40:05;;;;;;;7.25;1.85;;;14.00;99.90;;;;;;5055348;28;20033;-88
2022/10/19 10:42:42;;;;;;;5.53;2.05;;;14.10;99.90;;;;;;5036233;28;20064;-87
2022/10/19 10:45:30;;;;;;;6.18;1.70;;;14.20;99.90;;;;;;5037308;28;20025;-87
2022/10/19 10:47:56;;;;;;;6.53;1.92;;;14.30;99.90;;;;;;5035588;28;20017;-87
2022/10/19 10:50:26;;;;;;;5.13;2.10;;;14.40;99.90;;;;;;5019514;28;20037;-86
2022/10/19 10:53:04;;;;;;;6.72;1.42;;;14.50;99.90;;;;;;5045523;28;20419;-88
2022/10/19 10:55:31;;;;;;;3.47;1.50;;;14.60;99.90;;;;;;5031369;28;20021;-87
2022/10/19 10:58:20;;;;;;;4.68;1.35;;;14.60;99.90;;;;;;5031834;28;20045;-88
2022/10/19 11:00:48;;;;;;;4.30;1.17;;;14.70;99.90;;;;;;5041889;28;20542;-89
2022/10/19 11:03:24;;;;;;;6.20;1.50;;;14.80;99.90;;;;;;5032963;28;20024;-88
2022/10/19 11:05:59;;;;;;;3.40;1.25;;;14.90;99.90;;;;;;5035771;28;20017;-87
2022/10/19 11:08:39;;;;;;;7.82;1.88;;;15.00;99.90;;;;;;5053308;28;20029;-87
2022/10/19 11:11:20;;;;;;;12.02;1.50;;;15.00;99.90;;;;;;5038745;28;20029;-87
2022/10/19 11:13:58;;;;;;;16.25;1.88;;;15.20;99.90;;;;;;5035704;28;20017;-87
2022/10/19 11:16:40;;;;;;;21.25;2.17;;;15.20;99.90;;;;;;5035111;28;20025;-86
2022/10/19 11:19:15;;;;;;;5.03;1.30;;;15.30;99.90;;;;;;5034692;28;20037;-88
2022/10/19 11:22:04;;;;;;;8.80;1.92;;;15.40;99.90;;;;;;5029089;28;20072;-89
2022/10/19 11:24:54;;;;;;;6.50;1.55;;;15.50;99.90;;;;;;5001865;28;20061;-89
2022/10/19 11:27:43;;;;;;;7.47;2.20;;;15.60;99.90;;;;;;5030977;28;20037;-89
2022/10/19 11:30:18;;;;;;;6.63;1.65;;;15.60;99.90;;;;;;5034033;28;20390;-89
2022/10/19 11:33:02;;;;;;;8.02;1.40;;;15.70;99.90;;;;;;5031631;28;20025;-95
2022/10/19 11:35:46;;;;;;;8.07;1.80;;;15.80;99.90;;;;;;5029671;28;20022;-93
2022/10/19 11:38:14;;;;;;;6.97;1.50;;;15.80;99.90;;;;;;5043862;28;20037;-95
2022/10/19 11:40:49;;;;;;;7.32;1.75;;;15.90;99.90;;;;;;5053692;28;20029;-92
2022/10/19 11:43:41;;;;;;;9.48;1.60;;;16.00;99.90;;;;;;5043570;28;20036;-94
2022/10/19 11:46:50;;;;;;;6.55;1.92;;;16.10;99.90;;;;;;5029830;28;20040;-92
2022/10/19 11:49:41;;;;;;;4.50;1.30;;;16.10;99.90;;;;;;5018714;28;20044;-93
2022/10/19 11:52:45;;;;;;;6.68;1.42;;;16.20;99.90;;;;;;5032022;28;20021;-92
2022/10/19 11:55:50;;;;;;;3.97;1.20;;;16.30;99.90;;;;;;5035107;28;20509;-94
2022/10/19 11:58:25;;;;;;;4.32;1.48;;;16.40;99.90;;;;;;5031032;28;20071;-92
2022/10/19 12:01:12;;;;;;;6.03;1.80;;;16.50;99.90;;;;;;5036847;28;20380;-92
2022/10/19 12:04:09;;;;;;;5.78;1.40;;;16.50;99.90;;;;;;5028208;28;20025;-92
2022/10/19 12:06:54;;;;;;;5.93;1.10;;;16.60;99.90;;;;;;5053347;28;20074;-95
2022/10/19 12:09:49;;;;;;;5.57;1.20;;;16.60;99.90;;;;;;5031867;28;20083;-92
2022/10/19 12:12:32;;;;;;;6.53;1.20;;;16.70;99.90;;;;;;5025618;28;20041;-92
2022/10/19 12:15:10;;;;;;;6.38;1.33;;;16.80;99.90;;;;;;5061013;28;20120;-92
2022/10/19 12:17:41;;;;;;;3.75;1.00;;;16.90;99.90;;;;;;5054769;28;20047;-93
2022/10/19 12:20:36;;;;;;;10.25;1.63;;;16.90;99.90;;;;;;5026417;28;20478;-93
2022/10/19 12:23:30;;;;;;;3.65;1.35;;;17.00;99.90;;;;;;4995565;28;20080;-93
2022/10/19 12:25:58;;;;;;;6.25;1.48;;;17.00;99.90;;;;;;5044109;28;20040;-92
2022/10/19 12:28:29;;;;;;;5.70;1.40;;;17.10;99.90;;;;;;5035448;28;20048;-93
2022/10/19 12:30:55;;;;;;;7.63;1.38;;;17.20;99.90;;;;;;5016745;28;20040;-92
2022/10/19 12:33:30;;;;;;;5.65;1.20;;;17.20;99.90;;;;;;5019864;28;20037;-93
2022/10/19 12:36:10;;;;;;;6.25;1.65;;;17.20;99.90;;;;;;5035804;28;20072;-91
2022/10/19 12:38:49;;;;;;;6.97;1.33;;;17.30;99.90;;;;;;5031959;28;20025;-87
2022/10/19 12:41:28;;;;;;;6.18;1.40;;;17.40;99.90;;;;;;5026592;28;20025;-92
2022/10/19 12:44:11;;;;;;;5.13;1.40;;;17.40;99.50;;;;;;5035558;28;20052;-91
2022/10/19 12:46:41;;;;;;;4.55;1.08;;;17.50;99.50;;;;;;5016704;28;20048;-92
2022/10/19 12:49:25;;;;;;;6.30;1.40;;;17.50;99.10;;;;;;5029377;28;20033;-92
2022/10/19 12:51:55;;;;;;;4.47;1.27;;;17.50;98.00;;;;;;5030944;28;20029;-92
2022/10/19 12:54:24;;;;;;;4.85;1.10;;;17.50;99.10;;;;;;5016639;28;20057;-92
2022/10/19 12:56:54;;;;;;;3.83;1.10;;;17.60;99.10;;;;;;5034339;28;20028;-92
2022/10/19 12:59:41;;;;;;;3.75;1.00;;;17.60;99.20;;;;;;5017124;28;20462;-92
2022/10/19 13:02:33;;;;;;;4.63;1.38;;;17.70;99.20;;;;;;5019228;28;20026;-93
2022/10/19 13:04:59;;;;;;;3.35;0.98;;;17.70;98.30;;;;;;5019091;28;20022;-91
2022/10/19 13:07:29;;;;;;;6.85;1.60;;;17.80;98.50;;;;;;5017428;28;20033;-92
2022/10/19 13:10:05;;;;;;;11.48;2.03;;;17.80;98.80;;;;;;5015584;28;20393;-94
2022/10/19 13:12:44;;;;;;;5.28;1.20;;;17.90;97.90;;;;;;5037698;28;20022;-92
2022/10/19 13:15:35;;;;;;;7.90;1.20;;;17.90;97.40;;;;;;5030005;28;20033;-90
2022/10/19 13:18:11;;;;;;;3.80;0.98;;;18.00;97.00;;;;;;5024602;28;20038;-87
2022/10/19 13:20:37;;;;;;;4.95;0.85;;;18.00;98.00;;;;;;5009861;28;20050;-86